sensor_id;sensor_type;location;lat;lon;timestamp;P1;durP1;ratioP1;P2;durP2;ratioP2
69081;SDS011;69029;51.986;5.760;2023-05-07T00:00:33;7.28;;;5.43;;
69081;SDS011;69029;51.986;5.760;2023-05-07T00:02:59;7.43;;;5.53;;
69081;SDS011;69029;51.986;5.760;2023-05-07T00:05:25;7.57;;;5.28;;
69081;SDS011;69029;51.986;5.760;2023-05-07T00:07:50;8.77;;;5.97;;
69081;SDS011;69029;51.986;5.760;2023-05-07T00:10:17;7.50;;;5.47;;
69081;SDS011;69029;51.986;5.760;2023-05-07T00:12:43;7.53;;;5.57;;
69081;SDS011;69029;51.986;5.760;2023-05-07T00:15:09;7.63;;;5.68;;
69081;SDS011;69029;51.986;5.760;2023-05-07T00:17:35;6.90;;;5.65;;
69081;SDS011;69029;51.986;5.760;2023-05-07T00:20:02;7.68;;;5.63;;
69081;SDS011;69029;51.986;5.760;2023-05-07T00:22:29;8.45;;;5.85;;
69081;SDS011;69029;51.986;5.760;2023-05-07T00:24:56;9.13;;;5.55;;
69081;SDS011;69029;51.986;5.760;2023-05-07T00:27:22;10.48;;;6.50;;
69081;SDS011;69029;51.986;5.760;2023-05-07T00:29:47;11.82;;;5.72;;
69081;SDS011;69029;51.986;5.760;2023-05-07T00:32:13;9.85;;;6.05;;
69081;SDS011;69029;51.986;5.760;2023-05-07T00:34:39;6.45;;;5.57;;
69081;SDS011;69029;51.986;5.760;2023-05-07T00:37:05;13.25;;;5.93;;
69081;SDS011;69029;51.986;5.760;2023-05-07T00:39:32;8.10;;;6.03;;
69081;SDS011;69029;51.986;5.760;2023-05-07T00:41:58;7.25;;;5.20;;
69081;SDS011;69029;51.986;5.760;2023-05-07T00:44:25;12.98;;;5.97;;
69081;SDS011;69029;51.986;5.760;2023-05-07T00:46:51;10.38;;;5.80;;
69081;SDS011;69029;51.986;5.760;2023-05-07T00:49:17;7.63;;;5.75;;
69081;SDS011;69029;51.986;5.760;2023-05-07T00:51:43;7.88;;;6.13;;
69081;SDS011;69029;51.986;5.760;2023-05-07T00:54:10;8.68;;;5.97;;
69081;SDS011;69029;51.986;5.760;2023-05-07T00:56:36;11.98;;;6.07;;
69081;SDS011;69029;51.986;5.760;2023-05-07T00:59:02;12.38;;;5.95;;
69081;SDS011;69029;51.986;5.760;2023-05-07T01:01:28;11.00;;;6.10;;
69081;SDS011;69029;51.986;5.760;2023-05-07T01:03:54;9.93;;;6.25;;
69081;SDS011;69029;51.986;5.760;2023-05-07T01:06:20;8.88;;;5.70;;
69081;SDS011;69029;51.986;5.760;2023-05-07T01:08:48;7.55;;;6.20;;
69081;SDS011;69029;51.986;5.760;2023-05-07T01:11:15;9.68;;;6.35;;
69081;SDS011;69029;51.986;5.760;2023-05-07T01:13:44;6.97;;;6.05;;
69081;SDS011;69029;51.986;5.760;2023-05-07T01:16:10;6.82;;;5.70;;
69081;SDS011;69029;51.986;5.760;2023-05-07T01:18:36;10.35;;;6.28;;
69081;SDS011;69029;51.986;5.760;2023-05-07T01:21:02;9.00;;;6.57;;
69081;SDS011;69029;51.986;5.760;2023-05-07T01:23:29;8.75;;;6.30;;
69081;SDS011;69029;51.986;5.760;2023-05-07T01:25:55;8.13;;;6.22;;
69081;SDS011;69029;51.986;5.760;2023-05-07T01:28:21;10.18;;;5.70;;
69081;SDS011;69029;51.986;5.760;2023-05-07T01:30:57;10.07;;;5.88;;
69081;SDS011;69029;51.986;5.760;2023-05-07T01:33:33;8.00;;;6.63;;
69081;SDS011;69029;51.986;5.760;2023-05-07T01:36:01;7.23;;;6.13;;
69081;SDS011;69029;51.986;5.760;2023-05-07T01:38:31;8.50;;;7.15;;
69081;SDS011;69029;51.986;5.760;2023-05-07T01:40:57;13.75;;;6.68;;
69081;SDS011;69029;51.986;5.760;2023-05-07T01:43:23;8.73;;;6.72;;
69081;SDS011;69029;51.986;5.760;2023-05-07T01:45:49;10.57;;;6.97;;
69081;SDS011;69029;51.986;5.760;2023-05-07T01:48:15;8.38;;;6.30;;
69081;SDS011;69029;51.986;5.760;2023-05-07T01:50:42;8.25;;;6.70;;
69081;SDS011;69029;51.986;5.760;2023-05-07T01:53:09;8.98;;;6.75;;
69081;SDS011;69029;51.986;5.760;2023-05-07T01:55:34;8.30;;;6.53;;
69081;SDS011;69029;51.986;5.760;2023-05-07T01:58:01;8.70;;;6.90;;
69081;SDS011;69029;51.986;5.760;2023-05-07T02:00:28;11.30;;;7.20;;
69081;SDS011;69029;51.986;5.760;2023-05-07T02:02:53;11.23;;;7.50;;
69081;SDS011;69029;51.986;5.760;2023-05-07T02:05:19;12.68;;;7.40;;
69081;SDS011;69029;51.986;5.760;2023-05-07T02:07:45;9.80;;;7.00;;
69081;SDS011;69029;51.986;5.760;2023-05-07T02:10:10;10.48;;;6.85;;
69081;SDS011;69029;51.986;5.760;2023-05-07T02:12:36;12.88;;;7.68;;
69081;SDS011;69029;51.986;5.760;2023-05-07T02:15:02;12.98;;;7.30;;
69081;SDS011;69029;51.986;5.760;2023-05-07T02:17:28;8.48;;;6.97;;
69081;SDS011;69029;51.986;5.760;2023-05-07T02:19:56;8.90;;;7.05;;
69081;SDS011;69029;51.986;5.760;2023-05-07T02:22:22;9.52;;;6.80;;
69081;SDS011;69029;51.986;5.760;2023-05-07T02:24:48;10.65;;;7.57;;
69081;SDS011;69029;51.986;5.760;2023-05-07T02:27:14;12.27;;;7.85;;
69081;SDS011;69029;51.986;5.760;2023-05-07T02:29:39;9.48;;;7.30;;
69081;SDS011;69029;51.986;5.760;2023-05-07T02:32:05;9.65;;;7.43;;
69081;SDS011;69029;51.986;5.760;2023-05-07T02:34:31;9.07;;;6.93;;
69081;SDS011;69029;51.986;5.760;2023-05-07T02:36:56;12.20;;;7.28;;
69081;SDS011;69029;51.986;5.760;2023-05-07T02:39:22;10.07;;;7.07;;
69081;SDS011;69029;51.986;5.760;2023-05-07T02:41:48;11.15;;;6.93;;
69081;SDS011;69029;51.986;5.760;2023-05-07T02:44:13;9.07;;;6.82;;
69081;SDS011;69029;51.986;5.760;2023-05-07T02:46:39;10.07;;;7.07;;
69081;SDS011;69029;51.986;5.760;2023-05-07T02:49:04;11.27;;;7.63;;
69081;SDS011;69029;51.986;5.760;2023-05-07T02:51:30;10.50;;;8.05;;
69081;SDS011;69029;51.986;5.760;2023-05-07T02:53:56;10.32;;;7.68;;
69081;SDS011;69029;51.986;5.760;2023-05-07T02:56:22;10.93;;;7.97;;
69081;SDS011;69029;51.986;5.760;2023-05-07T02:58:49;13.15;;;7.60;;
69081;SDS011;69029;51.986;5.760;2023-05-07T03:01:14;9.90;;;7.68;;
69081;SDS011;69029;51.986;5.760;2023-05-07T03:03:40;10.82;;;8.18;;
69081;SDS011;69029;51.986;5.760;2023-05-07T03:06:07;13.68;;;8.00;;
69081;SDS011;69029;51.986;5.760;2023-05-07T03:08:32;12.80;;;7.18;;
69081;SDS011;69029;51.986;5.760;2023-05-07T03:10:58;9.50;;;6.78;;
69081;SDS011;69029;51.986;5.760;2023-05-07T03:13:24;10.93;;;6.53;;
69081;SDS011;69029;51.986;5.760;2023-05-07T03:15:50;10.15;;;6.85;;
69081;SDS011;69029;51.986;5.760;2023-05-07T03:18:15;9.57;;;6.63;;
69081;SDS011;69029;51.986;5.760;2023-05-07T03:20:41;11.98;;;7.80;;
69081;SDS011;69029;51.986;5.760;2023-05-07T03:23:06;10.68;;;6.88;;
69081;SDS011;69029;51.986;5.760;2023-05-07T03:25:32;11.77;;;7.65;;
69081;SDS011;69029;51.986;5.760;2023-05-07T03:27:58;13.30;;;9.50;;
69081;SDS011;69029;51.986;5.760;2023-05-07T03:30:24;11.43;;;8.80;;
69081;SDS011;69029;51.986;5.760;2023-05-07T03:32:49;11.77;;;8.82;;
69081;SDS011;69029;51.986;5.760;2023-05-07T03:35:15;11.80;;;8.32;;
69081;SDS011;69029;51.986;5.760;2023-05-07T03:37:41;12.75;;;9.18;;
69081;SDS011;69029;51.986;5.760;2023-05-07T03:40:07;14.27;;;9.38;;
69081;SDS011;69029;51.986;5.760;2023-05-07T03:42:35;12.48;;;10.07;;
69081;SDS011;69029;51.986;5.760;2023-05-07T03:45:00;17.17;;;10.68;;
69081;SDS011;69029;51.986;5.760;2023-05-07T03:47:26;11.18;;;8.27;;
69081;SDS011;69029;51.986;5.760;2023-05-07T03:49:52;13.50;;;9.90;;
69081;SDS011;69029;51.986;5.760;2023-05-07T03:52:18;14.93;;;10.35;;
69081;SDS011;69029;51.986;5.760;2023-05-07T03:54:48;12.68;;;9.93;;
69081;SDS011;69029;51.986;5.760;2023-05-07T03:57:14;16.38;;;10.73;;
69081;SDS011;69029;51.986;5.760;2023-05-07T03:59:40;15.18;;;10.88;;
69081;SDS011;69029;51.986;5.760;2023-05-07T04:02:05;16.33;;;10.85;;
69081;SDS011;69029;51.986;5.760;2023-05-07T04:04:34;15.45;;;10.77;;
69081;SDS011;69029;51.986;5.760;2023-05-07T04:06:59;12.50;;;10.30;;
69081;SDS011;69029;51.986;5.760;2023-05-07T04:09:25;14.48;;;10.95;;
69081;SDS011;69029;51.986;5.760;2023-05-07T04:11:51;14.27;;;10.75;;
69081;SDS011;69029;51.986;5.760;2023-05-07T04:14:16;16.60;;;10.13;;
69081;SDS011;69029;51.986;5.760;2023-05-07T04:16:42;14.77;;;11.02;;
69081;SDS011;69029;51.986;5.760;2023-05-07T04:19:07;14.23;;;10.27;;
69081;SDS011;69029;51.986;5.760;2023-05-07T04:21:33;18.20;;;10.43;;
69081;SDS011;69029;51.986;5.760;2023-05-07T04:23:59;16.45;;;11.02;;
69081;SDS011;69029;51.986;5.760;2023-05-07T04:26:24;15.93;;;10.90;;
69081;SDS011;69029;51.986;5.760;2023-05-07T04:28:50;14.13;;;11.27;;
69081;SDS011;69029;51.986;5.760;2023-05-07T04:31:15;16.38;;;11.13;;
69081;SDS011;69029;51.986;5.760;2023-05-07T04:33:41;18.00;;;10.57;;
69081;SDS011;69029;51.986;5.760;2023-05-07T04:36:07;13.85;;;10.55;;
69081;SDS011;69029;51.986;5.760;2023-05-07T04:38:32;15.63;;;10.95;;
69081;SDS011;69029;51.986;5.760;2023-05-07T04:41:02;14.48;;;11.45;;
69081;SDS011;69029;51.986;5.760;2023-05-07T04:43:29;13.60;;;10.15;;
69081;SDS011;69029;51.986;5.760;2023-05-07T04:45:54;18.77;;;11.40;;
69081;SDS011;69029;51.986;5.760;2023-05-07T04:48:20;16.83;;;11.05;;
69081;SDS011;69029;51.986;5.760;2023-05-07T04:50:49;14.88;;;11.02;;
69081;SDS011;69029;51.986;5.760;2023-05-07T04:53:15;16.50;;;10.73;;
69081;SDS011;69029;51.986;5.760;2023-05-07T04:55:42;15.60;;;11.60;;
69081;SDS011;69029;51.986;5.760;2023-05-07T04:58:08;11.85;;;9.30;;
69081;SDS011;69029;51.986;5.760;2023-05-07T05:00:34;16.60;;;11.43;;
69081;SDS011;69029;51.986;5.760;2023-05-07T05:02:59;14.70;;;11.35;;
69081;SDS011;69029;51.986;5.760;2023-05-07T05:05:25;14.68;;;10.30;;
69081;SDS011;69029;51.986;5.760;2023-05-07T05:07:51;14.00;;;11.30;;
69081;SDS011;69029;51.986;5.760;2023-05-07T05:10:16;16.17;;;11.45;;
69081;SDS011;69029;51.986;5.760;2023-05-07T05:12:42;15.82;;;10.90;;
69081;SDS011;69029;51.986;5.760;2023-05-07T05:15:08;20.17;;;10.98;;
69081;SDS011;69029;51.986;5.760;2023-05-07T05:17:35;15.90;;;11.23;;
69081;SDS011;69029;51.986;5.760;2023-05-07T05:20:01;14.95;;;11.80;;
69081;SDS011;69029;51.986;5.760;2023-05-07T05:22:27;13.52;;;11.20;;
69081;SDS011;69029;51.986;5.760;2023-05-07T05:24:56;19.70;;;11.95;;
69081;SDS011;69029;51.986;5.760;2023-05-07T05:27:21;17.80;;;12.27;;
69081;SDS011;69029;51.986;5.760;2023-05-07T05:29:47;15.77;;;10.93;;
69081;SDS011;69029;51.986;5.760;2023-05-07T05:32:12;16.80;;;10.82;;
69081;SDS011;69029;51.986;5.760;2023-05-07T05:34:38;13.18;;;11.10;;
69081;SDS011;69029;51.986;5.760;2023-05-07T05:37:05;13.80;;;10.80;;
69081;SDS011;69029;51.986;5.760;2023-05-07T05:39:30;16.52;;;11.45;;
69081;SDS011;69029;51.986;5.760;2023-05-07T05:41:56;16.30;;;12.00;;
69081;SDS011;69029;51.986;5.760;2023-05-07T05:44:21;13.10;;;10.32;;
69081;SDS011;69029;51.986;5.760;2023-05-07T05:46:47;14.70;;;10.68;;
69081;SDS011;69029;51.986;5.760;2023-05-07T05:49:14;14.75;;;11.68;;
69081;SDS011;69029;51.986;5.760;2023-05-07T05:51:40;13.88;;;10.90;;
69081;SDS011;69029;51.986;5.760;2023-05-07T05:54:05;13.27;;;10.40;;
69081;SDS011;69029;51.986;5.760;2023-05-07T05:56:31;14.60;;;11.43;;
69081;SDS011;69029;51.986;5.760;2023-05-07T05:58:57;14.73;;;11.32;;
69081;SDS011;69029;51.986;5.760;2023-05-07T06:01:22;14.13;;;11.20;;
69081;SDS011;69029;51.986;5.760;2023-05-07T06:03:48;14.95;;;11.50;;
69081;SDS011;69029;51.986;5.760;2023-05-07T06:06:14;16.58;;;11.40;;
69081;SDS011;69029;51.986;5.760;2023-05-07T06:08:40;14.10;;;11.40;;
69081;SDS011;69029;51.986;5.760;2023-05-07T06:11:06;14.82;;;10.73;;
69081;SDS011;69029;51.986;5.760;2023-05-07T06:13:31;14.30;;;11.77;;
69081;SDS011;69029;51.986;5.760;2023-05-07T06:15:57;14.10;;;10.98;;
69081;SDS011;69029;51.986;5.760;2023-05-07T06:18:23;18.77;;;11.27;;
69081;SDS011;69029;51.986;5.760;2023-05-07T06:20:49;14.77;;;10.68;;
69081;SDS011;69029;51.986;5.760;2023-05-07T06:23:14;13.27;;;10.38;;
69081;SDS011;69029;51.986;5.760;2023-05-07T06:25:40;13.00;;;10.43;;
69081;SDS011;69029;51.986;5.760;2023-05-07T06:28:05;12.75;;;9.55;;
69081;SDS011;69029;51.986;5.760;2023-05-07T06:30:33;9.98;;;8.52;;
69081;SDS011;69029;51.986;5.760;2023-05-07T06:32:58;17.30;;;10.63;;
69081;SDS011;69029;51.986;5.760;2023-05-07T06:35:25;13.30;;;10.07;;
69081;SDS011;69029;51.986;5.760;2023-05-07T06:37:51;12.73;;;10.30;;
69081;SDS011;69029;51.986;5.760;2023-05-07T06:40:16;12.25;;;10.00;;
69081;SDS011;69029;51.986;5.760;2023-05-07T06:42:42;13.50;;;10.27;;
69081;SDS011;69029;51.986;5.760;2023-05-07T06:45:08;15.75;;;10.55;;
69081;SDS011;69029;51.986;5.760;2023-05-07T06:47:34;13.57;;;10.38;;
69081;SDS011;69029;51.986;5.760;2023-05-07T06:49:59;12.73;;;10.02;;
69081;SDS011;69029;51.986;5.760;2023-05-07T06:52:25;12.85;;;10.23;;
69081;SDS011;69029;51.986;5.760;2023-05-07T06:54:51;14.55;;;10.02;;
69081;SDS011;69029;51.986;5.760;2023-05-07T06:57:16;15.45;;;10.63;;
69081;SDS011;69029;51.986;5.760;2023-05-07T06:59:42;12.65;;;10.55;;
69081;SDS011;69029;51.986;5.760;2023-05-07T07:02:07;12.88;;;10.27;;
69081;SDS011;69029;51.986;5.760;2023-05-07T07:04:33;11.88;;;10.65;;
69081;SDS011;69029;51.986;5.760;2023-05-07T07:06:59;16.58;;;10.05;;
69081;SDS011;69029;51.986;5.760;2023-05-07T07:09:24;13.18;;;10.32;;
69081;SDS011;69029;51.986;5.760;2023-05-07T07:11:50;13.68;;;10.35;;
69081;SDS011;69029;51.986;5.760;2023-05-07T07:14:16;12.93;;;9.45;;
69081;SDS011;69029;51.986;5.760;2023-05-07T07:16:41;14.13;;;9.90;;
69081;SDS011;69029;51.986;5.760;2023-05-07T07:19:07;14.05;;;10.00;;
69081;SDS011;69029;51.986;5.760;2023-05-07T07:21:33;17.98;;;9.85;;
69081;SDS011;69029;51.986;5.760;2023-05-07T07:23:58;12.13;;;9.70;;
69081;SDS011;69029;51.986;5.760;2023-05-07T07:26:24;13.95;;;9.77;;
69081;SDS011;69029;51.986;5.760;2023-05-07T07:28:50;12.90;;;8.45;;
69081;SDS011;69029;51.986;5.760;2023-05-07T07:31:15;12.38;;;9.20;;
69081;SDS011;69029;51.986;5.760;2023-05-07T07:33:41;10.60;;;8.25;;
69081;SDS011;69029;51.986;5.760;2023-05-07T07:36:10;12.43;;;9.23;;
69081;SDS011;69029;51.986;5.760;2023-05-07T07:38:35;12.57;;;9.15;;
69081;SDS011;69029;51.986;5.760;2023-05-07T07:41:01;14.65;;;9.05;;
69081;SDS011;69029;51.986;5.760;2023-05-07T07:43:27;16.02;;;10.48;;
69081;SDS011;69029;51.986;5.760;2023-05-07T07:45:52;13.20;;;9.70;;
69081;SDS011;69029;51.986;5.760;2023-05-07T07:48:18;12.85;;;9.65;;
69081;SDS011;69029;51.986;5.760;2023-05-07T07:50:44;12.18;;;9.18;;
69081;SDS011;69029;51.986;5.760;2023-05-07T07:53:09;10.48;;;8.13;;
69081;SDS011;69029;51.986;5.760;2023-05-07T07:55:38;18.50;;;10.90;;
69081;SDS011;69029;51.986;5.760;2023-05-07T07:58:05;14.35;;;9.73;;
69081;SDS011;69029;51.986;5.760;2023-05-07T08:00:30;14.43;;;9.50;;
69081;SDS011;69029;51.986;5.760;2023-05-07T08:02:56;13.73;;;10.18;;
69081;SDS011;69029;51.986;5.760;2023-05-07T08:05:22;12.35;;;9.35;;
69081;SDS011;69029;51.986;5.760;2023-05-07T08:07:48;14.10;;;10.55;;
69081;SDS011;69029;51.986;5.760;2023-05-07T08:10:17;13.93;;;9.57;;
69081;SDS011;69029;51.986;5.760;2023-05-07T08:12:46;15.90;;;9.95;;
69081;SDS011;69029;51.986;5.760;2023-05-07T08:15:12;11.90;;;9.73;;
69081;SDS011;69029;51.986;5.760;2023-05-07T08:17:38;12.75;;;9.32;;
69081;SDS011;69029;51.986;5.760;2023-05-07T08:20:04;12.40;;;9.88;;
69081;SDS011;69029;51.986;5.760;2023-05-07T08:22:30;15.02;;;9.57;;
69081;SDS011;69029;51.986;5.760;2023-05-07T08:24:55;12.40;;;9.35;;
69081;SDS011;69029;51.986;5.760;2023-05-07T08:27:21;14.80;;;9.52;;
69081;SDS011;69029;51.986;5.760;2023-05-07T08:29:47;13.38;;;8.90;;
69081;SDS011;69029;51.986;5.760;2023-05-07T08:32:13;13.98;;;9.90;;
69081;SDS011;69029;51.986;5.760;2023-05-07T08:34:39;14.05;;;9.65;;
69081;SDS011;69029;51.986;5.760;2023-05-07T08:37:05;12.90;;;8.70;;
69081;SDS011;69029;51.986;5.760;2023-05-07T08:39:30;12.07;;;8.02;;
69081;SDS011;69029;51.986;5.760;2023-05-07T08:41:56;11.60;;;8.05;;
69081;SDS011;69029;51.986;5.760;2023-05-07T08:44:25;11.18;;;8.90;;
69081;SDS011;69029;51.986;5.760;2023-05-07T08:46:52;12.20;;;8.38;;
69081;SDS011;69029;51.986;5.760;2023-05-07T08:49:20;13.07;;;7.85;;
69081;SDS011;69029;51.986;5.760;2023-05-07T08:51:46;12.07;;;8.38;;
69081;SDS011;69029;51.986;5.760;2023-05-07T08:54:15;10.90;;;8.35;;
69081;SDS011;69029;51.986;5.760;2023-05-07T08:56:41;14.48;;;8.48;;
69081;SDS011;69029;51.986;5.760;2023-05-07T08:59:07;12.15;;;8.35;;
69081;SDS011;69029;51.986;5.760;2023-05-07T09:01:32;13.40;;;7.93;;
69081;SDS011;69029;51.986;5.760;2023-05-07T09:04:00;13.00;;;8.10;;
69081;SDS011;69029;51.986;5.760;2023-05-07T09:06:26;10.00;;;7.50;;
69081;SDS011;69029;51.986;5.760;2023-05-07T09:08:52;13.65;;;8.05;;
69081;SDS011;69029;51.986;5.760;2023-05-07T09:11:20;15.07;;;7.57;;
69081;SDS011;69029;51.986;5.760;2023-05-07T09:13:47;9.27;;;6.65;;
69081;SDS011;69029;51.986;5.760;2023-05-07T09:16:12;15.07;;;7.70;;
69081;SDS011;69029;51.986;5.760;2023-05-07T09:18:44;10.23;;;7.15;;
69081;SDS011;69029;51.986;5.760;2023-05-07T09:21:14;7.65;;;6.47;;
69081;SDS011;69029;51.986;5.760;2023-05-07T09:23:41;9.77;;;6.57;;
69081;SDS011;69029;51.986;5.760;2023-05-07T09:26:07;11.10;;;6.82;;
69081;SDS011;69029;51.986;5.760;2023-05-07T09:28:37;14.60;;;7.07;;
69081;SDS011;69029;51.986;5.760;2023-05-07T09:31:05;9.40;;;6.63;;
69081;SDS011;69029;51.986;5.760;2023-05-07T09:33:31;13.02;;;6.03;;
69081;SDS011;69029;51.986;5.760;2023-05-07T09:35:56;10.50;;;6.20;;
69081;SDS011;69029;51.986;5.760;2023-05-07T09:38:22;8.88;;;6.13;;
69081;SDS011;69029;51.986;5.760;2023-05-07T09:40:47;10.43;;;6.68;;
69081;SDS011;69029;51.986;5.760;2023-05-07T09:43:33;9.60;;;5.60;;
69081;SDS011;69029;51.986;5.760;2023-05-07T09:48:39;9.63;;;5.78;;
69081;SDS011;69029;51.986;5.760;2023-05-07T09:51:09;9.85;;;5.93;;
69081;SDS011;69029;51.986;5.760;2023-05-07T09:53:57;9.32;;;5.80;;
69081;SDS011;69029;51.986;5.760;2023-05-07T09:56:25;13.32;;;5.68;;
69081;SDS011;69029;51.986;5.760;2023-05-07T09:58:52;9.73;;;5.70;;
69081;SDS011;69029;51.986;5.760;2023-05-07T10:01:25;11.05;;;5.18;;
69081;SDS011;69029;51.986;5.760;2023-05-07T10:03:52;8.50;;;5.22;;
69081;SDS011;69029;51.986;5.760;2023-05-07T10:06:21;7.15;;;4.60;;
69081;SDS011;69029;51.986;5.760;2023-05-07T10:08:49;8.30;;;4.57;;
69081;SDS011;69029;51.986;5.760;2023-05-07T10:11:15;6.28;;;4.28;;
69081;SDS011;69029;51.986;5.760;2023-05-07T10:13:41;4.93;;;4.30;;
69081;SDS011;69029;51.986;5.760;2023-05-07T10:16:08;7.68;;;5.28;;
69081;SDS011;69029;51.986;5.760;2023-05-07T10:18:34;9.48;;;5.03;;
69081;SDS011;69029;51.986;5.760;2023-05-07T10:21:18;11.35;;;5.13;;
69081;SDS011;69029;51.986;5.760;2023-05-07T10:23:48;14.98;;;5.53;;
69081;SDS011;69029;51.986;5.760;2023-05-07T10:26:16;9.95;;;5.57;;
69081;SDS011;69029;51.986;5.760;2023-05-07T10:28:46;10.35;;;5.65;;
69081;SDS011;69029;51.986;5.760;2023-05-07T10:33:41;6.13;;;5.53;;
69081;SDS011;69029;51.986;5.760;2023-05-07T10:36:09;9.00;;;6.18;;
69081;SDS011;69029;51.986;5.760;2023-05-07T10:38:35;8.68;;;6.05;;
69081;SDS011;69029;51.986;5.760;2023-05-07T10:41:01;10.75;;;5.45;;
69081;SDS011;69029;51.986;5.760;2023-05-07T10:43:42;12.15;;;6.07;;
69081;SDS011;69029;51.986;5.760;2023-05-07T10:46:09;8.20;;;5.68;;
69081;SDS011;69029;51.986;5.760;2023-05-07T10:51:28;7.18;;;5.07;;
69081;SDS011;69029;51.986;5.760;2023-05-07T10:56:42;9.57;;;5.00;;
69081;SDS011;69029;51.986;5.760;2023-05-07T11:01:52;5.45;;;4.13;;
69081;SDS011;69029;51.986;5.760;2023-05-07T11:04:25;6.28;;;4.22;;
69081;SDS011;69029;51.986;5.760;2023-05-07T11:13:02;5.32;;;3.67;;
69081;SDS011;69029;51.986;5.760;2023-05-07T11:15:06;5.95;;;3.83;;
69081;SDS011;69029;51.986;5.760;2023-05-07T11:17:32;4.43;;;3.67;;
69081;SDS011;69029;51.986;5.760;2023-05-07T11:20:02;9.32;;;4.32;;
69081;SDS011;69029;51.986;5.760;2023-05-07T11:25:01;4.22;;;3.70;;
69081;SDS011;69029;51.986;5.760;2023-05-07T11:27:31;11.50;;;4.20;;
69081;SDS011;69029;51.986;5.760;2023-05-07T11:29:58;7.95;;;3.92;;
69081;SDS011;69029;51.986;5.760;2023-05-07T11:32:30;6.93;;;4.68;;
69081;SDS011;69029;51.986;5.760;2023-05-07T11:34:57;7.43;;;4.20;;
69081;SDS011;69029;51.986;5.760;2023-05-07T11:37:25;6.00;;;4.55;;
69081;SDS011;69029;51.986;5.760;2023-05-07T11:40:04;5.70;;;4.55;;
69081;SDS011;69029;51.986;5.760;2023-05-07T11:42:32;6.97;;;5.25;;
69081;SDS011;69029;51.986;5.760;2023-05-07T11:44:59;8.15;;;5.50;;
69081;SDS011;69029;51.986;5.760;2023-05-07T11:47:25;8.82;;;5.93;;
69081;SDS011;69029;51.986;5.760;2023-05-07T11:49:54;9.05;;;6.07;;
69081;SDS011;69029;51.986;5.760;2023-05-07T11:52:22;10.45;;;5.78;;
69081;SDS011;69029;51.986;5.760;2023-05-07T11:54:52;8.15;;;5.47;;
69081;SDS011;69029;51.986;5.760;2023-05-07T11:57:25;9.80;;;5.60;;
69081;SDS011;69029;51.986;5.760;2023-05-07T11:59:58;7.55;;;5.50;;
69081;SDS011;69029;51.986;5.760;2023-05-07T12:02:25;11.20;;;5.50;;
69081;SDS011;69029;51.986;5.760;2023-05-07T12:04:51;8.85;;;5.05;;
69081;SDS011;69029;51.986;5.760;2023-05-07T12:07:17;9.73;;;6.53;;
69081;SDS011;69029;51.986;5.760;2023-05-07T12:09:43;9.25;;;6.07;;
69081;SDS011;69029;51.986;5.760;2023-05-07T12:12:10;8.95;;;5.72;;
69081;SDS011;69029;51.986;5.760;2023-05-07T12:14:39;6.82;;;5.95;;
69081;SDS011;69029;51.986;5.760;2023-05-07T12:17:10;9.07;;;5.65;;
69081;SDS011;69029;51.986;5.760;2023-05-07T12:19:37;6.85;;;5.85;;
69081;SDS011;69029;51.986;5.760;2023-05-07T12:22:04;7.20;;;5.60;;
69081;SDS011;69029;51.986;5.760;2023-05-07T12:27:27;8.75;;;6.45;;
69081;SDS011;69029;51.986;5.760;2023-05-07T12:29:53;7.97;;;5.40;;
69081;SDS011;69029;51.986;5.760;2023-05-07T12:32:20;6.40;;;5.70;;
69081;SDS011;69029;51.986;5.760;2023-05-07T12:34:46;7.85;;;5.93;;
69081;SDS011;69029;51.986;5.760;2023-05-07T12:37:15;6.63;;;5.60;;
69081;SDS011;69029;51.986;5.760;2023-05-07T12:39:44;9.60;;;5.20;;
69081;SDS011;69029;51.986;5.760;2023-05-07T12:42:16;10.00;;;5.25;;
69081;SDS011;69029;51.986;5.760;2023-05-07T12:44:45;6.05;;;5.45;;
69081;SDS011;69029;51.986;5.760;2023-05-07T12:47:11;8.25;;;4.35;;
69081;SDS011;69029;51.986;5.760;2023-05-07T12:49:37;4.40;;;3.92;;
69081;SDS011;69029;51.986;5.760;2023-05-07T12:52:03;10.30;;;5.13;;
69081;SDS011;69029;51.986;5.760;2023-05-07T12:54:30;9.57;;;5.88;;
69081;SDS011;69029;51.986;5.760;2023-05-07T12:57:07;7.07;;;4.68;;
69081;SDS011;69029;51.986;5.760;2023-05-07T12:59:37;7.40;;;4.50;;
69081;SDS011;69029;51.986;5.760;2023-05-07T13:02:04;5.75;;;3.53;;
69081;SDS011;69029;51.986;5.760;2023-05-07T13:04:31;5.50;;;4.20;;
69081;SDS011;69029;51.986;5.760;2023-05-07T13:06:57;6.78;;;4.95;;
69081;SDS011;69029;51.986;5.760;2023-05-07T13:09:23;9.05;;;4.50;;
69081;SDS011;69029;51.986;5.760;2023-05-07T13:11:49;7.40;;;4.00;;
69081;SDS011;69029;51.986;5.760;2023-05-07T13:14:15;5.93;;;3.90;;
69081;SDS011;69029;51.986;5.760;2023-05-07T13:16:40;4.95;;;3.28;;
69081;SDS011;69029;51.986;5.760;2023-05-07T13:19:06;6.63;;;3.05;;
69081;SDS011;69029;51.986;5.760;2023-05-07T13:21:32;5.05;;;2.80;;
69081;SDS011;69029;51.986;5.760;2023-05-07T13:23:58;3.50;;;3.20;;
69081;SDS011;69029;51.986;5.760;2023-05-07T13:26:24;3.90;;;2.97;;
69081;SDS011;69029;51.986;5.760;2023-05-07T13:28:50;6.78;;;3.50;;
69081;SDS011;69029;51.986;5.760;2023-05-07T13:31:16;5.25;;;4.57;;
69081;SDS011;69029;51.986;5.760;2023-05-07T13:33:45;8.20;;;4.38;;
69081;SDS011;69029;51.986;5.760;2023-05-07T13:36:11;5.40;;;3.80;;
69081;SDS011;69029;51.986;5.760;2023-05-07T13:38:37;7.70;;;4.28;;
69081;SDS011;69029;51.986;5.760;2023-05-07T13:41:02;4.22;;;3.75;;
69081;SDS011;69029;51.986;5.760;2023-05-07T13:43:28;5.72;;;4.30;;
69081;SDS011;69029;51.986;5.760;2023-05-07T13:45:53;7.07;;;3.65;;
69081;SDS011;69029;51.986;5.760;2023-05-07T13:48:19;7.35;;;4.32;;
69081;SDS011;69029;51.986;5.760;2023-05-07T13:50:44;4.07;;;3.60;;
69081;SDS011;69029;51.986;5.760;2023-05-07T13:53:10;4.97;;;3.83;;
69081;SDS011;69029;51.986;5.760;2023-05-07T13:55:36;4.82;;;3.45;;
69081;SDS011;69029;51.986;5.760;2023-05-07T13:58:02;4.30;;;3.20;;
69081;SDS011;69029;51.986;5.760;2023-05-07T14:00:28;7.40;;;3.55;;
69081;SDS011;69029;51.986;5.760;2023-05-07T14:02:54;4.55;;;3.70;;
69081;SDS011;69029;51.986;5.760;2023-05-07T14:05:21;7.95;;;4.07;;
69081;SDS011;69029;51.986;5.760;2023-05-07T14:07:50;4.53;;;3.35;;
69081;SDS011;69029;51.986;5.760;2023-05-07T14:10:17;5.65;;;4.20;;
69081;SDS011;69029;51.986;5.760;2023-05-07T14:12:43;4.18;;;3.78;;
69081;SDS011;69029;51.986;5.760;2023-05-07T14:15:10;5.03;;;4.00;;
69081;SDS011;69029;51.986;5.760;2023-05-07T14:17:36;6.18;;;3.97;;
69081;SDS011;69029;51.986;5.760;2023-05-07T14:20:02;6.30;;;3.53;;
69081;SDS011;69029;51.986;5.760;2023-05-07T14:22:28;5.88;;;3.55;;
69081;SDS011;69029;51.986;5.760;2023-05-07T14:24:53;4.22;;;3.20;;
69081;SDS011;69029;51.986;5.760;2023-05-07T14:27:19;6.10;;;3.78;;
69081;SDS011;69029;51.986;5.760;2023-05-07T14:29:45;8.15;;;3.95;;
69081;SDS011;69029;51.986;5.760;2023-05-07T14:32:15;5.15;;;3.53;;
69081;SDS011;69029;51.986;5.760;2023-05-07T14:34:44;7.10;;;4.35;;
69081;SDS011;69029;51.986;5.760;2023-05-07T14:37:11;4.13;;;3.13;;
69081;SDS011;69029;51.986;5.760;2023-05-07T14:39:37;4.82;;;3.40;;
69081;SDS011;69029;51.986;5.760;2023-05-07T14:42:03;6.82;;;4.00;;
69081;SDS011;69029;51.986;5.760;2023-05-07T14:44:29;8.13;;;3.95;;
69081;SDS011;69029;51.986;5.760;2023-05-07T14:46:56;4.63;;;3.63;;
69081;SDS011;69029;51.986;5.760;2023-05-07T14:49:22;5.28;;;4.07;;
69081;SDS011;69029;51.986;5.760;2023-05-07T14:51:48;6.22;;;4.20;;
69081;SDS011;69029;51.986;5.760;2023-05-07T14:54:14;5.88;;;3.72;;
69081;SDS011;69029;51.986;5.760;2023-05-07T14:56:40;5.50;;;4.30;;
69081;SDS011;69029;51.986;5.760;2023-05-07T14:59:07;7.32;;;4.07;;